Nearby METAR Reports

 

KSGR - Houston/Sugar La, Texas, USA
Distance from station: ESE 7mi, 12km
Updated: Wed, 20-Jan-2021 11:17pm CST
Mist, Overcast
Mist, Overcast
 Wind from SE
Wind: SE 6 mph , 9 km/h
Temperature: 63°F , 17°C
Dew Point: 61°F , 16°C
Humidity: 94%
Barometer: 30.16 inHg , 1021.3 hPa
Summary: Mist
Clouds: Overcast
Visibility: 2 miles , 3 km
Cloud details: Overcast 200 ft
2021/01/21 05:17 KSGR 210517Z 13005KT 2SM BR OVC002 17/16 A3016 RMK AO2 T01720161
KTME - Houston Exec, Texas, USA
Distance from station: NW 14mi, 22km
Updated: Wed, 20-Jan-2021 11:15pm CST
Mist
Mist
 Wind from SSE
Wind: SSE 7 mph , 11 km/h
Temperature: 63°F , 17°C
Dew Point: 63°F , 17°C
Humidity: 100%
Barometer: 30.17 inHg , 1021.7 hPa
Summary: Mist
Visibility: 4 miles , 6 km
2021/01/21 05:15 KTME 210515Z AUTO 16006KT 4SM BR 17/17 A3017 RMK AO2
 
KAXH - Houston/Southwst, Texas, USA
Distance from station: ESE 19mi, 31km
Updated: Wed, 20-Jan-2021 11:15pm CST
Fog, Overcast
Fog, Overcast
 Wind from calm
Wind: Calm
Temperature: 61°F , 16°C
Dew Point: 59°F , 15°C
Humidity: 94%
Barometer: 30.19 inHg , 1022.4 hPa
Summary: Fog
Clouds: Overcast
Visibility: 1/2 mile , 0.8 km
Cloud details: Overcast 300 ft
2021/01/21 05:15 KAXH 210515Z AUTO 00000KT 1/2SM FG OVC003 16/15 A3019 RMK AO2 T01580151
KMCJ - Houston/Univ, Texas, USA
Distance from station: ENE 23mi, 37km
Updated: Wed, 20-Jan-2021 11:15pm CST
Fog, Overcast
Fog, Overcast
 Wind from SE
Wind: SE 8 mph , 13 km/h
Temperature: 59°F , 15°C
Dew Point: 59°F , 15°C
Humidity: 100%
Barometer: 30.16 inHg , 1021.3 hPa
Summary: Fog
Clouds: Overcast
Visibility: less than 1/4 mile , 0.4 km
Cloud details: Overcast 400 ft
2021/01/21 05:15 KMCJ 210515Z AUTO 14007KT M1/4SM FG OVC004 15/15 A3016 RMK A01
 
KHOU - Houston/Hobby, Texas, USA
Distance from station: E 29mi, 47km
Updated: Wed, 20-Jan-2021 10:53pm CST
Fog, Overcast
Fog, Overcast
 Wind from SE
Wind: SE 6 mph , 9 km/h
Temperature: 61°F , 16°C
Dew Point: 59°F , 15°C
Humidity: 94%
Barometer: 30.18 inHg , 1022 hPa
Summary: Fog
Clouds: Overcast
Visibility: 1/2 mile , 0.8 km
Cloud details: Overcast 300 ft
2021/01/21 04:53 KHOU 210453Z 13005KT 1/2SM FG VV003 16/15 A3018 RMK AO2 SLP224 T01610150
KDWH - Houston/Dw Hooks, Texas, USA
Distance from station: NNE 32mi, 52km
Updated: Wed, 20-Jan-2021 10:53pm CST
Mist, Overcast
Mist, Overcast
 Wind from SSE
Wind: SSE 5 mph , 7 km/h
Temperature: 63°F , 17°C
Dew Point: 61°F , 16°C
Humidity: 94%
Barometer: 30.17 inHg , 1021.7 hPa
Summary: Mist
Clouds: Overcast
Visibility: 3 miles , 5 km
Cloud details: Overcast 400 ft
2021/01/21 04:53 KDWH 210453Z 15004KT 3SM BR OVC004 17/16 A3017 RMK AO2 SLP213 T01670156
 
KLVJ - Houston, Texas, USA
Distance from station: ESE 32mi, 52km
Updated: Wed, 20-Jan-2021 10:53pm CST
Fog, Overcast
Fog, Overcast
 Wind from E
Wind: E 3 mph , 6 km/h
Temperature: 61°F , 16°C
Dew Point: 59°F , 15°C
Humidity: 94%
Barometer: 30.20 inHg , 1022.7 hPa
Summary: Fog
Clouds: Overcast
Visibility: 1/2 mile , 0.8 km
Cloud details: Overcast 200 ft
2021/01/21 04:53 KLVJ 210453Z AUTO 10003KT 1/2SM FG VV002 16/15 A3020 RMK AO2 SLP224 T01560150
KELA - Eagle Lake, Texas, USA
Distance from station: W 33mi, 53km
Updated: Wed, 20-Jan-2021 11:15pm CST
Heavy drizzle, Overcast
Heavy drizzle, Overcast
 
Temperature: 61°F , 16°C
Dew Point: 59°F , 15°C
Humidity: 94%
Barometer: 30.17 inHg , 1021.7 hPa
Summary: Heavy Drizzle
Clouds: Overcast
Visibility: 2 1/2 miles , 4 km
Cloud details: Overcast 200 ft
2021/01/21 05:15 KELA 210515Z AUTO 2 1/2SM +DZ OVC002 16/15 A3017 RMK AO2 P0001 T01560151
 
KIAH - Houston/Intnl, Texas, USA
Distance from station: NE 35mi, 56km
Updated: Wed, 20-Jan-2021 10:53pm CST
Mist, Overcast
Mist, Overcast
 Wind from SSE
Wind: SSE 8 mph , 13 km/h
Temperature: 61°F , 16°C
Dew Point: 61°F , 16°C
Humidity: 100%
Barometer: 30.17 inHg , 1021.7 hPa
Summary: Mist
Clouds: Overcast
Visibility: 1/8 mile , 0.2 km
Cloud details: Overcast 200 ft
2021/01/21 04:53 KIAH 210453Z 16007KT 1/8SM BR OVC002 16/16 A3017 RMK AO2 SFC VIS 1 3/4 SLP216 T01610156
KARM - Wharton, Texas, USA
Distance from station: SW 35mi, 57km
Updated: Wed, 20-Jan-2021 11:15pm CST
Mist, Overcast
Mist, Overcast
 Wind from E
Wind: E 3 mph , 6 km/h
Temperature: 63°F , 17°C
Dew Point: 61°F , 16°C
Humidity: 94%
Barometer: 30.17 inHg , 1021.7 hPa
Summary: Mist
Clouds: Overcast
Visibility: 1 1/2 miles , 2.4 km
Cloud details: Overcast 300 ft
2021/01/21 05:15 KARM 210515Z AUTO 09003KT 1 1/2SM BR OVC003 17/16 A3017 RMK AO2 T01650158
 
KEFD - Houston/Ellingto, Texas, USA
Distance from station: E 36mi, 59km
Updated: Wed, 20-Jan-2021 10:50pm CST
Fog, Overcast
Fog, Overcast
 Wind from calm
Wind: Calm
Temperature: 59°F , 15°C
Dew Point: 59°F , 15°C
Humidity: 100%
Barometer: 30.18 inHg , 1022 hPa
Summary: Fog
Clouds: Overcast
Visibility: 1/4 mile , 0.4 km
Cloud details: Overcast 200 ft
2021/01/21 04:50 KEFD 210450Z 00000KT 1/4SM FG OVC002 15/15 A3018
KLBX - Angleton, Texas, USA
Distance from station: SSE 40mi, 65km
Updated: Wed, 20-Jan-2021 10:53pm CST
Mist, Overcast
Mist, Overcast
 Wind from calm
Wind: Calm
Temperature: 61°F , 16°C
Dew Point: 59°F , 15°C
Humidity: 94%
Barometer: 30.17 inHg , 1021.7 hPa
Summary: Mist
Clouds: Overcast
Visibility: 3/4 mile , 1.2 km
Cloud details: Overcast 300 ft
2021/01/21 04:53 KLBX 210453Z AUTO 00000KT 3/4SM BR VV003 16/15 A3017 RMK AO2 SLP215 T01610150
 
K66R - Columbus, Texas, USA
Distance from station: W 45mi, 72km
Updated: Wed, 20-Jan-2021 11:15pm CST
Drizzle, Overcast
Drizzle, Overcast
 Wind from NNW
Wind: NNW 7 mph , 11 km/h
Temperature: 57°F , 14°C
Dew Point: 57°F , 14°C
Humidity: 100%
Barometer: 30.19 inHg , 1022.4 hPa
Summary: Drizzle
Clouds: Overcast
Visibility: 3 miles , 5 km
Cloud details: Overcast 300 ft
2021/01/21 05:15 K66R 210515Z AUTO 33006KT 3SM DZ OVC003 14/14 A3019 RMK AO2 T01370135
KBYY - Bay City, Texas, USA
Distance from station: S 47mi, 75km
Updated: Wed, 20-Jan-2021 11:15pm CST
Mist, Overcast
Mist, Overcast
 Wind from calm
Wind: Calm
Temperature: 61°F , 16°C
Dew Point: 61°F , 16°C
Humidity: 100%
Barometer: 30.16 inHg , 1021.3 hPa
Summary: Mist
Clouds: Overcast
Visibility: 4 miles , 6 km
Cloud details: Partly cloudy 200 ft
Partly cloudy 900 ft
Overcast 6500 ft
2021/01/21 05:15 KBYY 210515Z AUTO 00000KT 4SM BR SCT002 SCT009 OVC065 16/16 A3016 RMK AO2 T01680167